首页
METAR-TAF:

METAR-TAF

机场 :

Clinton Municipal Airport

克林顿, 艾奥瓦州, 美国

纬度: 41-50N, 经度: 090-20W, 海拔: 216米

当前天气观测

该预报发布于56分钟前的17:56 UTC
风速16节,风向北转西北
温度 1°C
湿度 64%
气压 1025 hPa
能見度: 16.1公里
天空无云

METAR: KCWI 181756Z AUTO 33016KT 10SM CLR 01/M05 A3026 RMK AO2 SLP258 T00061050 10006 21022 51022 FZRANO

时间: 12:52 (18:52 UTC)


TAF: 丢失

超过4000个机场的气象观测和天气预报(METAR&TAF报告)。

可查询的气象台以黄色和红色小点在地图上表示。

将鼠标移到小点上方,可查看气象台名称。

然后点击查看天气观测和预报。

如需切换地图:点击带黑十字的绿色按钮放大地图;点击带横线的绿色按钮缩小地图;或者点击绿色箭头查看邻近地区的地图。


METAR-TAF: